sensor_id;sensor_type;location;lat;lon;timestamp;pressure;altitude;pressure_sealevel;temperature;humidity
6565;BME280;3316;44.118;27.258;2023-05-08T00:00:47;101383.22;;;14.08;100.00
6565;BME280;3316;44.118;27.258;2023-05-08T00:03:12;101394.72;;;14.06;100.00
6565;BME280;3316;44.118;27.258;2023-05-08T00:05:40;101351.81;;;13.83;100.00
6565;BME280;3316;44.118;27.258;2023-05-08T00:08:05;101374.50;;;13.99;100.00
6565;BME280;3316;44.118;27.258;2023-05-08T00:10:31;101348.28;;;13.82;100.00
6565;BME280;3316;44.118;27.258;2023-05-08T00:12:57;101374.63;;;13.90;100.00
6565;BME280;3316;44.118;27.258;2023-05-08T00:15:23;101372.97;;;13.81;100.00
6565;BME280;3316;44.118;27.258;2023-05-08T00:17:48;101361.44;;;13.87;100.00
6565;BME280;3316;44.118;27.258;2023-05-08T00:20:14;101365.88;;;13.83;100.00
6565;BME280;3316;44.118;27.258;2023-05-08T00:22:39;101359.81;;;13.75;100.00
6565;BME280;3316;44.118;27.258;2023-05-08T00:25:05;101350.13;;;13.76;100.00
6565;BME280;3316;44.118;27.258;2023-05-08T00:27:31;101356.38;;;13.69;100.00
6565;BME280;3316;44.118;27.258;2023-05-08T00:29:57;101278.38;;;13.31;100.00
6565;BME280;3316;44.118;27.258;2023-05-08T00:32:23;101361.50;;;13.82;100.00
6565;BME280;3316;44.118;27.258;2023-05-08T00:34:49;101320.50;;;13.47;100.00
6565;BME280;3316;44.118;27.258;2023-05-08T00:37:14;101358.03;;;13.79;100.00
6565;BME280;3316;44.118;27.258;2023-05-08T00:39:40;101360.59;;;13.86;100.00
6565;BME280;3316;44.118;27.258;2023-05-08T00:42:05;101372.91;;;13.87;100.00
6565;BME280;3316;44.118;27.258;2023-05-08T00:44:31;101373.84;;;13.82;100.00
6565;BME280;3316;44.118;27.258;2023-05-08T00:46:56;101352.81;;;13.71;100.00
6565;BME280;3316;44.118;27.258;2023-05-08T00:49:22;101373.81;;;13.86;100.00
6565;BME280;3316;44.118;27.258;2023-05-08T00:51:50;101386.09;;;13.92;100.00
6565;BME280;3316;44.118;27.258;2023-05-08T00:54:17;101386.06;;;13.93;100.00
6565;BME280;3316;44.118;27.258;2023-05-08T00:56:44;101394.84;;;13.98;100.00
6565;BME280;3316;44.118;27.258;2023-05-08T00:59:13;101391.25;;;14.01;100.00
6565;BME280;3316;44.118;27.258;2023-05-08T01:01:39;101389.41;;;14.07;100.00
6565;BME280;3316;44.118;27.258;2023-05-08T01:04:05;101400.88;;;14.08;100.00
6565;BME280;3316;44.118;27.258;2023-05-08T01:06:31;101408.72;;;14.15;100.00
6565;BME280;3316;44.118;27.258;2023-05-08T01:08:57;101392.84;;;14.15;99.54
6565;BME280;3316;44.118;27.258;2023-05-08T01:22:11;101424.97;;;14.57;97.78
6565;BME280;3316;44.118;27.258;2023-05-08T01:27:39;101422.91;;;14.78;96.01
6565;BME280;3316;44.118;27.258;2023-05-08T01:32:41;101423.53;;;14.92;94.58
6565;BME280;3316;44.118;27.258;2023-05-08T01:42:57;101397.69;;;14.50;99.03
6565;BME280;3316;44.118;27.258;2023-05-08T01:45:31;101383.00;;;14.30;100.00
6565;BME280;3316;44.118;27.258;2023-05-08T01:48:04;101391.16;;;14.08;100.00
6565;BME280;3316;44.118;27.258;2023-05-08T01:50:44;101404.38;;;14.08;100.00
6565;BME280;3316;44.118;27.258;2023-05-08T01:53:20;101398.25;;;14.05;100.00
6565;BME280;3316;44.118;27.258;2023-05-08T01:55:49;101395.69;;;13.99;100.00
6565;BME280;3316;44.118;27.258;2023-05-08T01:58:15;101379.03;;;13.92;100.00
6565;BME280;3316;44.118;27.258;2023-05-08T02:00:42;101377.22;;;13.93;100.00
6565;BME280;3316;44.118;27.258;2023-05-08T02:03:09;101384.22;;;14.00;100.00
6565;BME280;3316;44.118;27.258;2023-05-08T02:05:36;101385.16;;;13.96;100.00
6565;BME280;3316;44.118;27.258;2023-05-08T02:08:03;101376.38;;;13.91;100.00
6565;BME280;3316;44.118;27.258;2023-05-08T02:10:29;101365.88;;;13.83;100.00
6565;BME280;3316;44.118;27.258;2023-05-08T02:12:55;101369.44;;;13.82;100.00
6565;BME280;3316;44.118;27.258;2023-05-08T02:15:23;101369.56;;;13.72;100.00
6565;BME280;3316;44.118;27.258;2023-05-08T02:17:52;101368.69;;;13.70;100.00
6565;BME280;3316;44.118;27.258;2023-05-08T02:20:19;101375.75;;;13.69;100.00
6565;BME280;3316;44.118;27.258;2023-05-08T02:22:48;101371.38;;;13.67;100.00
6565;BME280;3316;44.118;27.258;2023-05-08T02:25:15;101379.25;;;13.73;100.00
6565;BME280;3316;44.118;27.258;2023-05-08T02:27:43;101365.13;;;13.74;100.00
6565;BME280;3316;44.118;27.258;2023-05-08T02:30:13;101362.34;;;13.86;100.00
6565;BME280;3316;44.118;27.258;2023-05-08T02:32:41;101363.25;;;13.83;100.00
6565;BME280;3316;44.118;27.258;2023-05-08T02:35:10;101359.91;;;13.68;100.00
6565;BME280;3316;44.118;27.258;2023-05-08T02:37:38;101353.84;;;13.61;100.00
6565;BME280;3316;44.118;27.258;2023-05-08T02:40:05;101361.69;;;13.67;100.00
6565;BME280;3316;44.118;27.258;2023-05-08T02:42:33;101355.53;;;13.64;100.00
6565;BME280;3316;44.118;27.258;2023-05-08T02:44:59;101358.19;;;13.64;100.00
6565;BME280;3316;44.118;27.258;2023-05-08T02:47:26;101322.38;;;13.35;100.00
6565;BME280;3316;44.118;27.258;2023-05-08T02:49:59;101371.34;;;13.70;100.00
6565;BME280;3316;44.118;27.258;2023-05-08T02:52:41;101364.34;;;13.64;100.00
6565;BME280;3316;44.118;27.258;2023-05-08T02:55:38;101368.69;;;13.70;100.00
6565;BME280;3316;44.118;27.258;2023-05-08T03:00:55;101307.44;;;13.31;100.00
6565;BME280;3316;44.118;27.258;2023-05-08T03:03:34;101374.00;;;13.68;100.00
6565;BME280;3316;44.118;27.258;2023-05-08T03:06:02;101369.66;;;13.64;100.00
6565;BME280;3316;44.118;27.258;2023-05-08T03:08:33;101381.13;;;13.63;100.00
6565;BME280;3316;44.118;27.258;2023-05-08T03:11:13;101392.56;;;13.67;100.00
6565;BME280;3316;44.118;27.258;2023-05-08T03:13:40;101396.91;;;13.69;100.00
6565;BME280;3316;44.118;27.258;2023-05-08T03:16:10;101397.00;;;13.63;100.00
6565;BME280;3316;44.118;27.258;2023-05-08T03:18:48;101398.75;;;13.64;100.00
6565;BME280;3316;44.118;27.258;2023-05-08T03:21:17;101404.78;;;13.75;100.00
6565;BME280;3316;44.118;27.258;2023-05-08T03:23:45;101404.72;;;13.80;100.00
6565;BME280;3316;44.118;27.258;2023-05-08T03:26:16;101412.59;;;13.86;100.00
6565;BME280;3316;44.118;27.258;2023-05-08T03:28:46;101412.50;;;13.93;100.00
6565;BME280;3316;44.118;27.258;2023-05-08T03:31:13;101413.34;;;13.97;100.00
6565;BME280;3316;44.118;27.258;2023-05-08T03:33:42;101418.63;;;14.00;100.00
6565;BME280;3316;44.118;27.258;2023-05-08T03:36:08;101416.81;;;14.03;100.00
6565;BME280;3316;44.118;27.258;2023-05-08T03:38:34;101412.41;;;14.01;100.00
6565;BME280;3316;44.118;27.258;2023-05-08T03:41:00;101414.13;;;14.05;100.00
6565;BME280;3316;44.118;27.258;2023-05-08T03:43:26;101415.03;;;14.05;100.00
6565;BME280;3316;44.118;27.258;2023-05-08T03:45:53;101429.22;;;13.98;100.00
6565;BME280;3316;44.118;27.258;2023-05-08T03:48:19;101439.75;;;14.03;100.00
6565;BME280;3316;44.118;27.258;2023-05-08T03:50:46;101435.22;;;14.12;100.00
6565;BME280;3316;44.118;27.258;2023-05-08T03:53:13;101432.47;;;14.20;100.00
6565;BME280;3316;44.118;27.258;2023-05-08T03:55:38;101443.78;;;14.36;100.00
6565;BME280;3316;44.118;27.258;2023-05-08T04:03:31;101467.69;;;14.31;100.00
6565;BME280;3316;44.118;27.258;2023-05-08T04:08:40;101462.53;;;14.17;100.00
6565;BME280;3316;44.118;27.258;2023-05-08T04:11:17;101472.28;;;14.11;100.00
6565;BME280;3316;44.118;27.258;2023-05-08T04:13:48;101466.19;;;14.04;100.00
6565;BME280;3316;44.118;27.258;2023-05-08T04:16:20;101465.25;;;14.08;100.00
6565;BME280;3316;44.118;27.258;2023-05-08T04:18:48;101483.66;;;14.19;100.00
6565;BME280;3316;44.118;27.258;2023-05-08T04:21:19;101445.88;;;14.05;100.00
6565;BME280;3316;44.118;27.258;2023-05-08T04:23:48;101488.97;;;14.19;100.00
6565;BME280;3316;44.118;27.258;2023-05-08T04:26:16;101492.47;;;14.21;100.00
6565;BME280;3316;44.118;27.258;2023-05-08T04:28:42;101500.38;;;14.25;100.00
6565;BME280;3316;44.118;27.258;2023-05-08T04:31:08;101501.22;;;14.29;100.00
6565;BME280;3316;44.118;27.258;2023-05-08T04:33:34;101498.63;;;14.23;100.00
6565;BME280;3316;44.118;27.258;2023-05-08T04:36:01;101502.19;;;14.19;100.00
6565;BME280;3316;44.118;27.258;2023-05-08T04:38:27;101503.97;;;14.18;100.00
6565;BME280;3316;44.118;27.258;2023-05-08T04:40:52;101486.38;;;14.13;100.00
6565;BME280;3316;44.118;27.258;2023-05-08T04:43:17;101476.75;;;14.04;100.00
6565;BME280;3316;44.118;27.258;2023-05-08T04:45:43;101489.03;;;14.11;100.00
6565;BME280;3316;44.118;27.258;2023-05-08T04:48:08;101481.09;;;14.13;100.00
6565;BME280;3316;44.118;27.258;2023-05-08T04:50:34;101473.34;;;13.95;100.00
6565;BME280;3316;44.118;27.258;2023-05-08T04:52:59;101448.03;;;13.70;100.00
6565;BME280;3316;44.118;27.258;2023-05-08T04:55:25;101448.09;;;13.64;100.00
6565;BME280;3316;44.118;27.258;2023-05-08T04:57:50;101449.06;;;13.57;100.00
6565;BME280;3316;44.118;27.258;2023-05-08T05:00:16;101442.88;;;13.56;100.00
6565;BME280;3316;44.118;27.258;2023-05-08T05:02:41;101436.00;;;13.42;100.00
6565;BME280;3316;44.118;27.258;2023-05-08T05:05:07;101421.25;;;13.16;100.00
6565;BME280;3316;44.118;27.258;2023-05-08T05:07:32;101440.56;;;13.21;100.00
6565;BME280;3316;44.118;27.258;2023-05-08T05:09:59;101435.34;;;13.14;100.00
6565;BME280;3316;44.118;27.258;2023-05-08T05:12:24;101431.81;;;13.13;100.00
6565;BME280;3316;44.118;27.258;2023-05-08T05:14:50;101429.22;;;13.07;100.00
6565;BME280;3316;44.118;27.258;2023-05-08T05:17:15;101451.19;;;13.18;100.00
6565;BME280;3316;44.118;27.258;2023-05-08T05:19:40;101449.47;;;13.07;100.00
6565;BME280;3316;44.118;27.258;2023-05-08T05:22:06;101443.31;;;13.08;100.00
6565;BME280;3316;44.118;27.258;2023-05-08T05:24:32;101439.81;;;13.06;100.00
6565;BME280;3316;44.118;27.258;2023-05-08T05:27:00;101444.97;;;13.21;100.00
6565;BME280;3316;44.118;27.258;2023-05-08T05:29:26;101442.31;;;13.22;100.00
6565;BME280;3316;44.118;27.258;2023-05-08T05:31:52;101404.66;;;12.95;100.00
6565;BME280;3316;44.118;27.258;2023-05-08T05:34:18;101445.63;;;13.44;100.00
6565;BME280;3316;44.118;27.258;2023-05-08T05:36:43;101442.16;;;13.44;100.00
6565;BME280;3316;44.118;27.258;2023-05-08T05:39:09;101460.53;;;13.57;100.00
6565;BME280;3316;44.118;27.258;2023-05-08T05:41:34;101457.72;;;13.69;100.00
6565;BME280;3316;44.118;27.258;2023-05-08T05:44:00;101465.53;;;13.84;100.00
6565;BME280;3316;44.118;27.258;2023-05-08T05:46:26;101470.75;;;13.90;100.00
6565;BME280;3316;44.118;27.258;2023-05-08T05:48:57;101482.00;;;14.09;100.00
6565;BME280;3316;44.118;27.258;2023-05-08T05:51:22;101483.59;;;14.30;100.00
6565;BME280;3316;44.118;27.258;2023-05-08T05:53:48;101469.13;;;14.56;100.00
6565;BME280;3316;44.118;27.258;2023-05-08T05:56:13;101490.56;;;14.99;100.00
6565;BME280;3316;44.118;27.258;2023-05-08T05:58:39;101495.53;;;15.23;100.00
6565;BME280;3316;44.118;27.258;2023-05-08T06:01:08;101462.28;;;15.01;100.00
6565;BME280;3316;44.118;27.258;2023-05-08T06:03:34;101482.53;;;15.05;100.00
6565;BME280;3316;44.118;27.258;2023-05-08T06:05:59;101463.28;;;14.94;100.00
6565;BME280;3316;44.118;27.258;2023-05-08T06:08:25;101443.66;;;14.46;100.00
6565;BME280;3316;44.118;27.258;2023-05-08T06:10:50;101426.81;;;14.50;100.00
6565;BME280;3316;44.118;27.258;2023-05-08T06:13:16;101435.03;;;14.26;100.00
6565;BME280;3316;44.118;27.258;2023-05-08T06:15:41;101453.59;;;14.24;100.00
6565;BME280;3316;44.118;27.258;2023-05-08T06:18:07;101473.03;;;14.22;100.00
6565;BME280;3316;44.118;27.258;2023-05-08T06:20:32;101458.16;;;14.13;100.00
6565;BME280;3316;44.118;27.258;2023-05-08T06:22:57;101473.91;;;14.25;100.00
6565;BME280;3316;44.118;27.258;2023-05-08T06:25:23;101471.31;;;14.18;100.00
6565;BME280;3316;44.118;27.258;2023-05-08T06:27:49;101455.59;;;14.06;100.00
6565;BME280;3316;44.118;27.258;2023-05-08T06:30:15;101446.88;;;13.96;100.00
6565;BME280;3316;44.118;27.258;2023-05-08T06:32:40;101446.91;;;13.93;100.00
6565;BME280;3316;44.118;27.258;2023-05-08T06:35:06;101425.84;;;13.84;100.00
6565;BME280;3316;44.118;27.258;2023-05-08T06:37:31;101453.03;;;14.00;100.00
6565;BME280;3316;44.118;27.258;2023-05-08T06:39:57;101451.06;;;14.15;100.00
6565;BME280;3316;44.118;27.258;2023-05-08T06:42:22;101457.88;;;14.38;100.00
6565;BME280;3316;44.118;27.258;2023-05-08T06:44:48;101457.66;;;14.54;100.00
6565;BME280;3316;44.118;27.258;2023-05-08T06:47:15;101452.13;;;14.72;100.00
6565;BME280;3316;44.118;27.258;2023-05-08T06:49:40;101478.81;;;15.16;100.00
6565;BME280;3316;44.118;27.258;2023-05-08T06:52:06;101484.63;;;15.43;100.00
6565;BME280;3316;44.118;27.258;2023-05-08T06:54:31;101475.09;;;15.81;100.00
6565;BME280;3316;44.118;27.258;2023-05-08T06:56:57;101475.94;;;16.28;100.00
6565;BME280;3316;44.118;27.258;2023-05-08T06:59:22;101481.91;;;16.39;100.00
6565;BME280;3316;44.118;27.258;2023-05-08T07:01:48;101492.91;;;17.05;100.00
6565;BME280;3316;44.118;27.258;2023-05-08T07:04:13;101488.41;;;17.42;100.00
6565;BME280;3316;44.118;27.258;2023-05-08T07:06:39;101493.66;;;17.82;100.00
6565;BME280;3316;44.118;27.258;2023-05-08T07:09:04;101489.84;;;17.92;100.00
6565;BME280;3316;44.118;27.258;2023-05-08T07:11:30;101483.47;;;17.27;100.00
6565;BME280;3316;44.118;27.258;2023-05-08T07:13:55;101474.28;;;17.03;100.00
6565;BME280;3316;44.118;27.258;2023-05-08T07:16:21;101461.69;;;16.74;100.00
6565;BME280;3316;44.118;27.258;2023-05-08T07:18:46;101477.97;;;16.98;100.00
6565;BME280;3316;44.118;27.258;2023-05-08T07:21:11;101480.88;;;17.25;100.00
6565;BME280;3316;44.118;27.258;2023-05-08T07:23:39;101470.47;;;17.16;100.00
6565;BME280;3316;44.118;27.258;2023-05-08T07:26:05;101463.41;;;16.77;100.00
6565;BME280;3316;44.118;27.258;2023-05-08T07:28:32;101471.88;;;16.54;100.00
6565;BME280;3316;44.118;27.258;2023-05-08T07:30:58;101469.72;;;16.29;100.00
6565;BME280;3316;44.118;27.258;2023-05-08T07:33:23;101474.97;;;16.32;100.00
6565;BME280;3316;44.118;27.258;2023-05-08T07:35:48;101476.09;;;16.20;100.00
6565;BME280;3316;44.118;27.258;2023-05-08T07:38:14;101471.38;;;15.90;100.00
6565;BME280;3316;44.118;27.258;2023-05-08T07:40:39;101475.97;;;15.80;100.00
6565;BME280;3316;44.118;27.258;2023-05-08T07:43:05;101498.22;;;15.73;100.00
6565;BME280;3316;44.118;27.258;2023-05-08T07:45:30;101494.16;;;15.54;100.00
6565;BME280;3316;44.118;27.258;2023-05-08T07:47:57;101495.63;;;15.72;100.00
6565;BME280;3316;44.118;27.258;2023-05-08T07:50:24;101500.69;;;15.85;100.00
6565;BME280;3316;44.118;27.258;2023-05-08T07:52:50;101479.06;;;16.03;100.00
6565;BME280;3316;44.118;27.258;2023-05-08T07:55:16;101470.66;;;16.26;100.00
6565;BME280;3316;44.118;27.258;2023-05-08T07:57:43;101481.22;;;16.29;100.00
6565;BME280;3316;44.118;27.258;2023-05-08T08:00:10;101478.47;;;16.34;100.00
6565;BME280;3316;44.118;27.258;2023-05-08T08:02:36;101483.19;;;16.20;100.00
6565;BME280;3316;44.118;27.258;2023-05-08T08:05:03;101478.97;;;16.10;100.00
6565;BME280;3316;44.118;27.258;2023-05-08T08:07:29;101471.47;;;15.85;100.00
6565;BME280;3316;44.118;27.258;2023-05-08T08:09:57;101465.69;;;15.62;100.00
6565;BME280;3316;44.118;27.258;2023-05-08T08:12:22;101448.88;;;15.63;100.00
6565;BME280;3316;44.118;27.258;2023-05-08T08:14:48;101465.56;;;15.70;100.00
6565;BME280;3316;44.118;27.258;2023-05-08T08:17:13;101445.38;;;15.61;100.00
6565;BME280;3316;44.118;27.258;2023-05-08T08:19:38;101388.78;;;15.10;100.00
6565;BME280;3316;44.118;27.258;2023-05-08T08:22:05;101437.94;;;15.30;100.00
6565;BME280;3316;44.118;27.258;2023-05-08T08:24:30;101434.72;;;15.11;100.00
6565;BME280;3316;44.118;27.258;2023-05-08T08:26:56;101447.03;;;15.13;100.00
6565;BME280;3316;44.118;27.258;2023-05-08T08:29:21;101450.66;;;15.09;100.00
6565;BME280;3316;44.118;27.258;2023-05-08T08:31:47;101448.88;;;15.11;100.00
6565;BME280;3316;44.118;27.258;2023-05-08T08:34:12;101455.16;;;15.04;100.00
6565;BME280;3316;44.118;27.258;2023-05-08T08:36:38;101452.47;;;15.06;100.00
6565;BME280;3316;44.118;27.258;2023-05-08T08:39:04;101440.09;;;15.06;100.00
6565;BME280;3316;44.118;27.258;2023-05-08T08:41:30;101458.63;;;15.09;100.00
6565;BME280;3316;44.118;27.258;2023-05-08T08:43:55;101457.72;;;15.10;100.00
6565;BME280;3316;44.118;27.258;2023-05-08T08:46:25;101469.78;;;15.28;100.00
6565;BME280;3316;44.118;27.258;2023-05-08T08:48:54;101462.16;;;15.08;100.00
6565;BME280;3316;44.118;27.258;2023-05-08T08:51:24;101478.81;;;15.16;100.00
6565;BME280;3316;44.118;27.258;2023-05-08T08:56:28;101440.81;;;15.16;100.00
6565;BME280;3316;44.118;27.258;2023-05-08T08:58:56;101478.53;;;15.33;100.00
6565;BME280;3316;44.118;27.258;2023-05-08T09:01:23;101482.81;;;15.45;100.00
6565;BME280;3316;44.118;27.258;2023-05-08T09:03:50;101490.00;;;15.37;100.00
6565;BME280;3316;44.118;27.258;2023-05-08T09:06:15;101492.56;;;15.41;100.00
6565;BME280;3316;44.118;27.258;2023-05-08T09:08:41;101495.94;;;15.51;100.00
6565;BME280;3316;44.118;27.258;2023-05-08T09:11:08;101498.38;;;15.64;100.00
6565;BME280;3316;44.118;27.258;2023-05-08T09:13:33;101497.38;;;15.71;100.00
6565;BME280;3316;44.118;27.258;2023-05-08T09:16:00;101500.81;;;15.76;100.00
6565;BME280;3316;44.118;27.258;2023-05-08T09:18:25;101500.53;;;15.93;100.00
6565;BME280;3316;44.118;27.258;2023-05-08T09:20:51;101503.69;;;16.12;100.00
6565;BME280;3316;44.118;27.258;2023-05-08T09:23:17;101501.72;;;16.23;100.00
6565;BME280;3316;44.118;27.258;2023-05-08T09:25:47;101504.75;;;16.47;100.00
6565;BME280;3316;44.118;27.258;2023-05-08T09:28:19;101470.44;;;16.38;100.00
6565;BME280;3316;44.118;27.258;2023-05-08T09:33:18;101505.25;;;16.66;100.00
6565;BME280;3316;44.118;27.258;2023-05-08T09:35:45;101484.44;;;16.86;100.00
6565;BME280;3316;44.118;27.258;2023-05-08T09:38:39;101488.16;;;17.17;100.00
6565;BME280;3316;44.118;27.258;2023-05-08T09:41:13;101489.50;;;17.35;100.00
6565;BME280;3316;44.118;27.258;2023-05-08T09:43:40;101488.28;;;17.48;100.00
6565;BME280;3316;44.118;27.258;2023-05-08T09:46:32;101498.78;;;17.54;100.00
6565;BME280;3316;44.118;27.258;2023-05-08T09:49:02;101489.13;;;17.13;100.00
6565;BME280;3316;44.118;27.258;2023-05-08T09:51:29;101493.44;;;17.19;100.00
6565;BME280;3316;44.118;27.258;2023-05-08T09:53:57;101492.22;;;16.95;100.00
6565;BME280;3316;44.118;27.258;2023-05-08T09:58:58;101490.25;;;17.03;100.00
6565;BME280;3316;44.118;27.258;2023-05-08T10:01:34;101492.38;;;16.89;100.00
6565;BME280;3316;44.118;27.258;2023-05-08T10:04:00;101490.78;;;16.80;100.00
6565;BME280;3316;44.118;27.258;2023-05-08T10:06:27;101418.84;;;16.05;100.00
6565;BME280;3316;44.118;27.258;2023-05-08T10:09:25;101492.00;;;16.22;100.00
6565;BME280;3316;44.118;27.258;2023-05-08T10:11:52;101497.63;;;16.07;100.00
6565;BME280;3316;44.118;27.258;2023-05-08T10:14:26;101497.13;;;16.31;100.00
6565;BME280;3316;44.118;27.258;2023-05-08T10:16:53;101501.47;;;16.35;100.00
6565;BME280;3316;44.118;27.258;2023-05-08T10:19:20;101491.50;;;16.46;100.00
6565;BME280;3316;44.118;27.258;2023-05-08T10:21:51;101491.44;;;16.50;100.00
6565;BME280;3316;44.118;27.258;2023-05-08T10:24:19;101494.03;;;16.53;100.00
6565;BME280;3316;44.118;27.258;2023-05-08T10:26:56;101503.94;;;16.86;100.00
6565;BME280;3316;44.118;27.258;2023-05-08T10:32:32;101505.13;;;16.73;100.00
6565;BME280;3316;44.118;27.258;2023-05-08T10:35:02;101500.75;;;16.71;100.00
6565;BME280;3316;44.118;27.258;2023-05-08T10:37:28;101483.03;;;16.27;100.00
6565;BME280;3316;44.118;27.258;2023-05-08T10:39:56;101487.13;;;16.43;100.00
6565;BME280;3316;44.118;27.258;2023-05-08T10:42:21;101488.72;;;16.09;100.00
6565;BME280;3316;44.118;27.258;2023-05-08T10:44:47;101440.81;;;15.69;100.00
6565;BME280;3316;44.118;27.258;2023-05-08T10:53:15;101489.34;;;15.23;100.00
6565;BME280;3316;44.118;27.258;2023-05-08T10:55:44;101492.81;;;15.26;100.00
6565;BME280;3316;44.118;27.258;2023-05-08T11:03:16;101482.16;;;15.28;100.00
6565;BME280;3316;44.118;27.258;2023-05-08T11:05:46;101497.19;;;15.29;100.00
6565;BME280;3316;44.118;27.258;2023-05-08T11:08:17;101485.13;;;15.09;100.00
6565;BME280;3316;44.118;27.258;2023-05-08T11:10:50;101493.16;;;15.03;100.00
6565;BME280;3316;44.118;27.258;2023-05-08T11:13:17;101484.47;;;14.92;100.00
6565;BME280;3316;44.118;27.258;2023-05-08T11:15:49;101495.94;;;14.94;100.00
6565;BME280;3316;44.118;27.258;2023-05-08T11:18:15;101490.03;;;14.76;100.00
6565;BME280;3316;44.118;27.258;2023-05-08T11:20:57;101481.34;;;14.66;100.00
6565;BME280;3316;44.118;27.258;2023-05-08T11:23:25;101488.53;;;14.55;100.00
6565;BME280;3316;44.118;27.258;2023-05-08T11:26:13;101492.09;;;14.54;100.00
6565;BME280;3316;44.118;27.258;2023-05-08T11:28:57;101477.09;;;14.55;100.00
6565;BME280;3316;44.118;27.258;2023-05-08T11:31:22;101453.47;;;14.37;100.00
6565;BME280;3316;44.118;27.258;2023-05-08T11:33:48;101495.66;;;14.50;100.00
6565;BME280;3316;44.118;27.258;2023-05-08T11:36:18;101494.00;;;14.42;100.00
6565;BME280;3316;44.118;27.258;2023-05-08T11:39:09;101492.41;;;14.24;100.00
6565;BME280;3316;44.118;27.258;2023-05-08T11:41:39;101518.00;;;14.30;100.00
6565;BME280;3316;44.118;27.258;2023-05-08T11:44:18;101512.69;;;14.26;100.00
6565;BME280;3316;44.118;27.258;2023-05-08T11:46:54;101510.19;;;14.16;100.00
6565;BME280;3316;44.118;27.258;2023-05-08T11:49:23;101509.31;;;14.14;100.00
6565;BME280;3316;44.118;27.258;2023-05-08T11:51:51;101495.25;;;14.09;100.00
6565;BME280;3316;44.118;27.258;2023-05-08T11:54:20;101510.22;;;14.11;100.00
6565;BME280;3316;44.118;27.258;2023-05-08T11:56:50;101503.22;;;14.04;100.00
6565;BME280;3316;44.118;27.258;2023-05-08T11:59:17;101509.41;;;14.05;100.00
6565;BME280;3316;44.118;27.258;2023-05-08T12:01:42;101487.44;;;13.97;100.00
6565;BME280;3316;44.118;27.258;2023-05-08T12:04:10;101496.09;;;14.11;100.00
6565;BME280;3316;44.118;27.258;2023-05-08T12:06:38;101496.16;;;14.05;100.00
6565;BME280;3316;44.118;27.258;2023-05-08T12:09:15;101490.13;;;13.91;100.00
6565;BME280;3316;44.118;27.258;2023-05-08T12:11:42;101479.72;;;13.79;100.00
6565;BME280;3316;44.118;27.258;2023-05-08T12:14:10;101489.25;;;13.92;100.00
6565;BME280;3316;44.118;27.258;2023-05-08T12:16:36;101489.06;;;14.10;100.00
6565;BME280;3316;44.118;27.258;2023-05-08T12:19:03;101499.78;;;13.98;100.00
6565;BME280;3316;44.118;27.258;2023-05-08T12:21:28;101489.47;;;13.72;100.00
6565;BME280;3316;44.118;27.258;2023-05-08T12:23:54;101447.38;;;13.47;100.00
6565;BME280;3316;44.118;27.258;2023-05-08T12:26:20;101478.94;;;13.66;100.00
6565;BME280;3316;44.118;27.258;2023-05-08T12:28:53;101478.94;;;13.66;100.00
6565;BME280;3316;44.118;27.258;2023-05-08T12:31:19;101483.34;;;13.66;100.00
6565;BME280;3316;44.118;27.258;2023-05-08T12:33:44;101481.63;;;13.60;100.00
6565;BME280;3316;44.118;27.258;2023-05-08T12:36:10;101467.59;;;13.52;100.00
6565;BME280;3316;44.118;27.258;2023-05-08T12:38:36;101477.19;;;13.65;100.00
6565;BME280;3316;44.118;27.258;2023-05-08T12:41:01;101492.13;;;13.69;100.00
6565;BME280;3316;44.118;27.258;2023-05-08T12:43:33;101477.22;;;13.62;100.00
6565;BME280;3316;44.118;27.258;2023-05-08T12:45:59;101486.03;;;13.60;100.00
6565;BME280;3316;44.118;27.258;2023-05-08T12:48:25;101474.69;;;13.49;100.00
6565;BME280;3316;44.118;27.258;2023-05-08T12:50:51;101490.50;;;13.55;100.00
6565;BME280;3316;44.118;27.258;2023-05-08T12:53:19;101458.84;;;13.47;100.00
6565;BME280;3316;44.118;27.258;2023-05-08T12:55:51;101462.25;;;13.58;100.00
6565;BME280;3316;44.118;27.258;2023-05-08T12:58:17;101470.16;;;13.63;100.00
6565;BME280;3316;44.118;27.258;2023-05-08T13:00:47;101472.94;;;13.49;100.00
6565;BME280;3316;44.118;27.258;2023-05-08T13:03:22;101465.88;;;13.48;100.00
6565;BME280;3316;44.118;27.258;2023-05-08T13:05:52;101463.19;;;13.53;100.00
6565;BME280;3316;44.118;27.258;2023-05-08T13:08:18;101457.03;;;13.52;100.00
6565;BME280;3316;44.118;27.258;2023-05-08T13:10:52;101467.56;;;13.58;100.00
6565;BME280;3316;44.118;27.258;2023-05-08T13:13:22;101458.72;;;13.61;100.00
6565;BME280;3316;44.118;27.258;2023-05-08T13:15:49;101472.72;;;13.72;100.00
6565;BME280;3316;44.118;27.258;2023-05-08T13:18:16;101470.22;;;13.57;100.00
6565;BME280;3316;44.118;27.258;2023-05-08T13:20:42;101465.88;;;13.50;100.00
6565;BME280;3316;44.118;27.258;2023-05-08T13:23:09;101438.81;;;13.19;100.00
6565;BME280;3316;44.118;27.258;2023-05-08T13:25:39;101472.94;;;13.49;100.00
6565;BME280;3316;44.118;27.258;2023-05-08T13:28:05;101466.75;;;13.52;100.00
6565;BME280;3316;44.118;27.258;2023-05-08T13:30:32;101489.59;;;13.56;100.00
6565;BME280;3316;44.118;27.258;2023-05-08T13:32:57;101467.66;;;13.48;100.00
6565;BME280;3316;44.118;27.258;2023-05-08T13:35:23;101491.38;;;13.54;100.00
6565;BME280;3316;44.118;27.258;2023-05-08T13:37:49;101488.78;;;13.49;100.00
6565;BME280;3316;44.118;27.258;2023-05-08T13:40:15;101494.00;;;13.58;100.00
6565;BME280;3316;44.118;27.258;2023-05-08T13:42:41;101486.06;;;13.61;100.00
6565;BME280;3316;44.118;27.258;2023-05-08T13:45:07;101483.41;;;13.58;100.00
6565;BME280;3316;44.118;27.258;2023-05-08T13:47:33;101484.28;;;13.60;100.00
6565;BME280;3316;44.118;27.258;2023-05-08T13:49:59;101489.63;;;13.53;100.00